• Join FlightAware (Why Join?)
  • Login
  • US Flag 
04:56PM EST


 

Airport Tracker/Info


-or-


 

Live Flight TrackerFlight Track Log ✈ ASQ4233 ✈ 09-May-2013 ✈ KDAL - KIAH

Flight Track Log - Related Links

Times and Time Zones

All times are in EDT time to prevent confusion due to time zone crossing. See the ASQ4233 flight status page for this flight to view local times or setup timezone preferences in your user account.

Time Position Orientation Groundspeed Altitude Reporting Facility
EDT Latitude Longitude Course Direction KTS MPH feet Rate Location/Type
01:57PM 32.8333 -96.8333 161° South 156 180 1,300  Level Dallas / Fort Worth TRACON
01:57PM 32.8167 -96.8000 121° Southeast 183 211 2,700 1,920 Climbing Dallas / Fort Worth TRACON
01:58PM 32.7667 -96.7500 140° Southeast 256 295 4,600 2,340 Climbing Dallas / Fort Worth TRACON
02:00PM 32.7089 -96.9783 162° South  Level FlightAware Approximate
02:00PM 32.6481 -96.7744 190° South 264 304 9,000  Level Fort Worth Center
02:01PM 32.6320 -96.9494 161° South  Level FlightAware Approximate
02:01PM 32.5731 -96.7847 187° South 274 315 11,100  Level Fort Worth Center
02:02PM 32.5555 -96.9188 161° South  Level FlightAware Approximate
02:02PM 32.4958 -96.7928 185° South 284 327 13,500  Level Fort Worth Center
02:03PM 32.4164 -96.8031 186° South 284 327 15,700 2,100 Climbing Fort Worth Center
02:04PM 32.3392 -96.8108 185° South 284 327 17,800 1,920 Climbing Fort Worth Center
02:05PM 32.2558 -96.8067 178° South 289 333 19,600 1,260 Climbing Fort Worth Center
02:06PM 32.1700 -96.7728 162° South 306 352 20,400 660 Climbing Fort Worth Center
02:07PM 32.0758 -96.7367 162° South 345 397 21,000 300 Climbing Fort Worth Center
02:08PM 31.9692 -96.6958 162° South 381 438 21,000  Level Fort Worth Center
02:09PM 31.8603 -96.6528 161° South 410 472 21,000  Level Fort Worth Center
02:10PM 31.7661 -96.6144 161° South 410 472 21,000  Level Fort Worth Center
02:11PM 31.6572 -96.5689 160° South 410 472 21,000  Level Fort Worth Center
02:12PM 31.5289 -96.5181 161° South 416 479 21,000  Level Houston Center
02:13PM 31.4189 -96.4758 162° South 412 474 21,000  Level Houston Center
02:14PM 31.3175 -96.4367 162° South 385 443 21,000  Level Houston Center
02:15PM 31.2169 -96.4003 163° South 374 430 21,000  Level Houston Center
02:16PM 31.1139 -96.3761 169° South 376 433 21,000  Level Houston Center
02:17PM 31.0117 -96.4050 194° South 373 429 21,000  Level Houston Center
02:18PM 30.9100 -96.4342 194° South 373 429 21,000  Level Houston Center
02:19PM 30.8014 -96.4667 194° South 346 398 21,000 -660 Level Houston Center
02:20PM 30.7181 -96.4003 146° Southeast 380 437 19,700 -1,680 Descending Houston Center
02:21PM 30.6678 -96.2964 119° Southeast 367 422 17,500 -2,040 Descending Houston Center
02:22PM 30.6203 -96.1958 119° Southeast 354 407 15,500 -1,620 Descending Houston Center
02:23PM 30.6000 -96.1564 121° Southeast 308 354 15,200 -1,020 Descending Houston Center
02:23PM 30.5761 -96.1081 120° Southeast 311 358 14,500 -1,680 Descending Houston Center
02:24PM 30.5544 -96.0644 120° Southeast 303 349 13,500 -1,800 Descending Houston Center
02:24PM 30.5319 -96.0189 120° Southeast 298 343 12,700 -1,800 Descending Houston Center
02:25PM 30.5117 -95.9797 121° Southeast 297 342 11,700 -1,800 Descending Houston Center
02:25PM 30.4897 -95.9367 121° Southeast 297 342 10,900 -1,500 Descending Houston Center
02:26PM 30.4686 -95.8950 120° Southeast 290 334 10,200 -900 Descending Houston Center
02:27PM 30.4494 -95.8567 120° Southeast 291 335 10,000 -180 Descending Houston Center
02:27PM 30.4117 -95.8194 140° Southeast 288 331 10,000  Level Houston Center
02:28PM 30.3911 -95.7939 133° Southeast 286 329 10,000 -780 Level Houston Center
02:28PM 30.3611 -95.7453 126° Southeast 283 326 9,200 -1,200 Descending Houston Center
02:29PM 30.3436 -95.7214 130° Southeast 281 323 8,800 -1,200 Descending Houston Center
02:29PM 30.3128 -95.6736 127° Southeast 284 327 8,000 -1,080 Descending Houston Center
02:30PM 30.2806 -95.6697 174° South 241 277 7,700 -840 Descending Houston Center
02:30PM 30.2522 -95.6783 195° South 190 219 7,200 -1,200 Descending Houston Center
02:31PM 30.2294 -95.6919 207° Southwest 199 229 6,500 -1,440 Descending Houston Center
02:31PM 30.2064 -95.7056 207° Southwest 208 239 5,900 -1,260 Descending Houston Center
02:32PM 30.1772 -95.7244 209° Southwest 209 241 5,200 -1,200 Descending Houston Center
02:32PM 30.1517 -95.7289 189° South 210 242 4,700 -1,020 Descending Houston Center
02:33PM 30.1206 -95.7319 185° South 208 239 4,200 -720 Descending Houston Center
02:33PM 30.0956 -95.7353 187° South 192 221 4,000 -720 Descending Houston Center
02:34PM 30.0694 -95.7403 189° South 192 221 3,500 -900 Descending Houston Center
02:34PM 30.0481 -95.7433 187° South 167 192 3,100 -540 Descending Houston Center
02:35PM 30.0192 -95.7289 157° South 182 209 3,000 -120 Descending Houston Center
02:35PM 30.0097 -95.7142 127° Southeast 187 215 3,000  Level Houston Center
02:36PM 30.0053 -95.6728 97° East 183 211 3,000  Level Houston Center
02:36PM 30.0064 -95.6517 87° East 192 221 3,000  Level Houston Center
02:37PM 30.0072 -95.6119 89° East 187 215 3,000 60 Level Houston Center
02:37PM 30.0072 -95.5914 90° East 187 215 3,100  Climbing Houston Center
02:38PM 30.0069 -95.5517 90° East 187 215 3,000 -120 Descending Houston Center
02:38PM 30.0056 -95.5264 94° East 179 206 3,000 -540 Level Houston Center
02:39PM 30.0072 -95.4953 86° East 184 212 2,500 -780 Descending Houston Center